Time;durP1;ratioP1;P1;durP2;ratioP2;P2;SDS_P1;SDS_P2;PMS_P1;PMS_P2;Temp;Humidity;BMP_temperature;BMP_pressure;BME280_temperature;BME280_humidity;BME280_pressure;Samples;Min_cycle;Max_cycle;Signal;HPM_P1;HPM_P2
2024/03/12 00:01:07;;;;;;;24.50;9.25;;;;;;;10.93;91.12;100239.81;5074259;28;20078;-68
2024/03/12 00:03:36;;;;;;;29.23;10.57;;;;;;;10.81;90.76;100242.72;5086367;28;20024;-68
2024/03/12 00:06:01;;;;;;;22.83;9.55;;;;;;;10.84;90.63;100247.38;5083323;28;20414;-68
2024/03/12 00:08:30;;;;;;;24.20;10.63;;;;;;;10.76;91.16;100241.13;5083343;28;20028;-68
2024/03/12 00:10:56;;;;;;;21.15;9.45;;;;;;;10.70;91.50;100245.25;5066023;28;20036;-68
2024/03/12 00:13:23;;;;;;;24.55;8.80;;;;;;;10.70;91.27;100250.66;5084090;28;20042;-68
2024/03/12 00:15:49;;;;;;;24.02;10.02;;;;;;;10.73;91.98;100244.56;5090498;28;20521;-68
2024/03/12 00:18:15;;;;;;;23.05;9.15;;;;;;;10.87;91.54;100243.97;5089898;28;20181;-68
2024/03/12 00:20:40;;;;;;;24.30;8.32;;;;;;;10.90;91.19;100251.28;5086463;28;20554;-68
2024/03/12 00:23:07;;;;;;;25.65;10.23;;;;;;;10.90;91.24;100248.59;5071124;28;20028;-68
2024/03/12 00:25:33;;;;;;;27.63;9.18;;;;;;;10.82;91.02;100255.81;5086520;28;20388;-68
2024/03/12 00:27:59;;;;;;;16.92;8.43;;;;;;;10.86;91.33;100255.84;5086608;28;20032;-68
2024/03/12 00:30:25;;;;;;;16.33;8.18;;;;;;;10.78;90.62;100263.06;5070127;28;20040;-68
2024/03/12 00:32:57;;;;;;;21.70;8.73;;;;;;;10.85;90.74;100252.41;5090662;28;20150;-69
2024/03/12 00:35:24;;;;;;;23.33;9.18;;;;;;;10.72;90.17;100248.38;5090429;28;20036;-68
2024/03/12 00:37:56;;;;;;;23.65;9.05;;;;;;;10.75;90.89;100249.56;5083819;28;20032;-68
2024/03/12 00:40:33;;;;;;;19.65;8.48;;;;;;;10.79;91.17;100259.25;5087927;28;20525;-68
2024/03/12 00:42:59;;;;;;;25.88;9.27;;;;;;;10.76;90.91;100251.88;5083452;28;20048;-68
2024/03/12 00:45:26;;;;;;;25.75;9.55;;;;;;;10.73;91.08;100258.03;5088838;28;20035;-68
2024/03/12 00:47:57;;;;;;;19.10;8.73;;;;;;;10.84;90.35;100260.84;5094980;28;20547;-68
2024/03/12 00:50:22;;;;;;;18.92;9.82;;;;;;;10.67;91.36;100259.47;5083617;28;20044;-68
2024/03/12 00:52:53;;;;;;;22.88;9.15;;;;;;;10.73;91.46;100260.72;5082195;28;20587;-68
2024/03/12 00:55:23;;;;;;;29.90;9.07;;;;;;;10.75;91.17;100254.94;5066154;28;20028;-68
2024/03/12 00:57:50;;;;;;;24.85;9.57;;;;;;;10.77;91.97;100260.75;5083195;28;20027;-68
2024/03/12 01:00:17;;;;;;;30.10;10.57;;;;;;;10.72;91.41;100258.38;5090608;28;20047;-68
2024/03/12 01:02:49;;;;;;;22.50;9.20;;;;;;;10.65;92.24;100255.59;5084358;28;20043;-69
2024/03/12 01:05:21;;;;;;;26.60;10.18;;;;;;;10.70;92.29;100260.66;5084783;28;20130;-68
2024/03/12 01:07:52;;;;;;;25.15;9.90;;;;;;;10.68;92.17;100261.00;5084939;28;20051;-68
2024/03/12 01:10:20;;;;;;;25.88;9.35;;;;;;;10.72;91.91;100261.84;5082989;28;20096;-68
2024/03/12 01:12:53;;;;;;;23.00;8.55;;;;;;;10.72;91.08;100264.53;5082977;28;20122;-68
2024/03/12 01:15:21;;;;;;;23.95;8.90;;;;;;;10.77;90.98;100266.13;5087865;28;20034;-68
2024/03/12 01:17:50;;;;;;;16.90;8.85;;;;;;;10.77;91.45;100266.94;5087117;28;20016;-68
2024/03/12 01:20:20;;;;;;;26.23;9.70;;;;;;;10.69;91.75;100262.59;5088728;28;20032;-68
2024/03/12 01:22:47;;;;;;;22.35;9.40;;;;;;;10.75;90.88;100255.75;5083650;28;20043;-68
2024/03/12 01:25:12;;;;;;;22.77;9.73;;;;;;;10.68;90.80;100263.72;5080292;28;20035;-68
2024/03/12 01:27:41;;;;;;;26.35;10.27;;;;;;;10.66;91.11;100257.94;5083586;28;20024;-68
2024/03/12 01:30:13;;;;;;;18.60;8.82;;;;;;;10.67;91.60;100264.84;5087781;28;20065;-68
2024/03/12 01:32:46;;;;;;;18.95;9.57;;;;;;;10.66;91.34;100260.63;5092333;28;20031;-68
2024/03/12 01:35:13;;;;;;;25.35;9.45;;;;;;;10.73;91.41;100255.31;5083370;28;20408;-68
2024/03/12 01:37:43;;;;;;;23.80;9.15;;;;;;;10.65;90.86;100258.28;5084697;28;20036;-68
2024/03/12 01:40:19;;;;;;;25.70;9.10;;;;;;;10.65;91.26;100263.66;5081935;28;20028;-68
2024/03/12 01:42:49;;;;;;;21.90;8.25;;;;;;;10.64;90.95;100267.50;5081595;28;20034;-68
2024/03/12 01:45:24;;;;;;;20.75;8.65;;;;;;;10.67;90.34;100267.56;5092753;28;20173;-68
2024/03/12 01:47:55;;;;;;;25.23;9.25;;;;;;;10.65;90.46;100264.44;5086435;28;20046;-68
2024/03/12 01:50:22;;;;;;;22.67;9.45;;;;;;;10.62;90.00;100259.81;5087177;28;20058;-68
2024/03/12 01:52:50;;;;;;;22.25;8.57;;;;;;;10.53;89.93;100261.22;5082938;28;20123;-68
2024/03/12 01:55:18;;;;;;;20.33;8.23;;;;;;;10.49;89.18;100266.53;5083914;28;20494;-68
2024/03/12 01:57:48;;;;;;;23.13;11.00;;;;;;;10.48;88.95;100266.88;5083116;28;20024;-68
2024/03/12 02:00:15;;;;;;;23.55;10.00;;;;;;;10.40;88.71;100267.94;5088808;28;20188;-68
2024/03/12 02:02:47;;;;;;;25.67;9.43;;;;;;;10.31;88.66;100270.88;5092087;28;20016;-68
2024/03/12 02:05:13;;;;;;;24.35;8.80;;;;;;;10.29;88.75;100273.16;5084776;28;20027;-68
2024/03/12 02:07:45;;;;;;;19.00;8.45;;;;;;;10.18;89.29;100260.69;5082990;28;20035;-68
2024/03/12 02:10:13;;;;;;;24.58;8.93;;;;;;;10.16;89.19;100265.66;5085465;28;20071;-68
2024/03/12 02:12:38;;;;;;;25.85;10.82;;;;;;;10.13;88.86;100266.34;5102392;27;20032;-68
2024/03/12 02:15:04;;;;;;;21.52;9.18;;;;;;;10.03;89.38;100265.81;5098105;28;20032;-68
2024/03/12 02:17:30;;;;;;;24.33;9.40;;;;;;;10.04;89.21;100269.28;5096419;28;20057;-68
2024/03/12 02:19:57;;;;;;;21.10;8.43;;;;;;;10.03;89.08;100268.50;5089671;28;20466;-68
2024/03/12 02:22:23;;;;;;;22.42;8.48;;;;;;;10.01;88.77;100267.31;5103584;27;20129;-68
2024/03/12 02:24:50;;;;;;;21.67;8.40;;;;;;;9.95;88.83;100272.22;5085872;28;20036;-68
2024/03/12 02:27:17;;;;;;;24.35;9.68;;;;;;;9.85;88.83;100269.34;5084181;28;20031;-68
2024/03/12 02:29:44;;;;;;;24.90;8.68;;;;;;;9.82;89.26;100275.44;5087040;28;20098;-68
2024/03/12 02:32:10;;;;;;;18.80;8.23;;;;;;;9.81;88.95;100273.91;5120245;27;20541;-69
2024/03/12 02:34:35;;;;;;;22.67;8.95;;;;;;;9.82;88.71;100273.53;5086253;28;20028;-68
2024/03/12 02:37:01;;;;;;;21.85;7.93;;;;;;;9.82;88.62;100278.13;5086206;28;20051;-68
2024/03/12 02:39:28;;;;;;;21.17;9.00;;;;;;;9.79;88.45;100279.59;5070131;28;20058;-68
2024/03/12 02:41:53;;;;;;;22.05;8.27;;;;;;;9.68;88.41;100283.25;5089438;28;20127;-68
2024/03/12 02:44:21;;;;;;;20.05;7.95;;;;;;;9.65;88.60;100284.75;5090017;28;20038;-68
2024/03/12 02:46:49;;;;;;;19.23;8.63;;;;;;;9.63;88.52;100287.03;5092444;28;20473;-68
2024/03/12 02:49:16;;;;;;;19.77;8.27;;;;;;;9.65;88.30;100283.97;5090531;28;20047;-68
2024/03/12 02:51:45;;;;;;;23.90;8.65;;;;;;;9.61;87.96;100278.53;5087567;28;20047;-68
2024/03/12 02:54:15;;;;;;;19.52;7.15;;;;;;;9.46;87.60;100282.09;5085442;28;20082;-68
2024/03/12 02:56:40;;;;;;;28.63;9.02;;;;;;;9.49;88.40;100280.59;5086848;28;20031;-68
2024/03/12 02:59:09;;;;;;;20.55;9.40;;;;;;;9.49;88.20;100280.59;5094399;28;20039;-68
2024/03/12 03:01:35;;;;;;;17.52;7.50;;;;;;;9.43;88.51;100288.19;5092819;28;20031;-68
2024/03/12 03:04:01;;;;;;;16.02;7.22;;;;;;;9.44;88.03;100283.59;5091020;28;20051;-68
2024/03/12 03:06:27;;;;;;;28.00;9.18;;;;;;;9.38;87.67;100283.09;5085971;28;20031;-68
2024/03/12 03:08:53;;;;;;;22.63;8.43;;;;;;;9.40;87.53;100288.13;5086410;28;20101;-68
2024/03/12 03:11:19;;;;;;;20.27;8.30;;;;;;;9.35;87.43;100299.91;5085690;28;20046;-68
2024/03/12 03:13:44;;;;;;;17.10;6.63;;;;;;;9.27;87.94;100294.78;5094217;28;20067;-68
2024/03/12 03:16:10;;;;;;;17.58;7.88;;;;;;;9.24;87.84;100296.25;5092502;28;20040;-68
2024/03/12 03:18:35;;;;;;;21.77;8.85;;;;;;;9.22;88.36;100287.00;5105869;27;20513;-68
2024/03/12 03:21:01;;;;;;;17.17;8.10;;;;;;;9.18;89.16;100294.19;5084332;28;21976;-68
2024/03/12 03:23:27;;;;;;;21.13;8.52;;;;;;;9.24;89.36;100293.56;5087141;28;20032;-68
2024/03/12 03:25:52;;;;;;;20.10;7.88;;;;;;;9.29;89.27;100297.91;5083705;28;20085;-68
2024/03/12 03:28:18;;;;;;;17.95;7.78;;;;;;;9.33;89.17;100298.75;5087140;28;20034;-68
2024/03/12 03:30:44;;;;;;;27.23;8.38;;;;;;;9.33;88.96;100304.88;5098249;28;20055;-68
2024/03/12 03:33:11;;;;;;;22.25;7.25;;;;;;;9.26;89.07;100301.28;5066725;28;20062;-68
2024/03/12 03:35:37;;;;;;;16.58;7.45;;;;;;;9.31;89.47;100291.00;5087745;28;20052;-68
2024/03/12 03:38:05;;;;;;;17.85;7.50;;;;;;;9.31;89.43;100292.94;5082821;28;21884;-68
2024/03/12 03:40:32;;;;;;;21.35;8.27;;;;;;;9.26;89.35;100291.31;5084103;28;20027;-68
2024/03/12 03:42:57;;;;;;;22.23;8.90;;;;;;;9.21;88.87;100296.19;5089243;28;20028;-68
2024/03/12 03:45:24;;;;;;;16.88;7.47;;;;;;;9.17;88.99;100298.81;5090084;28;20050;-68
2024/03/12 03:47:50;;;;;;;16.48;7.65;;;;;;;9.13;89.33;100295.28;5092446;28;20036;-68
2024/03/12 03:50:16;;;;;;;18.90;8.45;;;;;;;9.19;89.31;100301.16;5083701;28;20023;-68
2024/03/12 03:52:41;;;;;;;21.55;8.27;;;;;;;9.17;88.98;100306.88;5087367;28;20128;-68
2024/03/12 03:55:09;;;;;;;15.55;7.47;;;;;;;9.21;88.44;100304.25;5086872;28;20099;-68
2024/03/12 03:57:35;;;;;;;17.60;8.15;;;;;;;9.18;88.48;100304.94;5084553;28;20024;-68
2024/03/12 04:00:01;;;;;;;17.90;8.55;;;;;;;9.19;88.82;100303.81;5091789;28;20023;-68
2024/03/12 04:02:27;;;;;;;14.73;7.50;;;;;;;9.21;88.26;100305.03;5086601;28;20577;-68
2024/03/12 04:04:52;;;;;;;15.43;6.88;;;;;;;9.29;88.11;100308.66;5111391;27;20131;-68
2024/03/12 04:07:19;;;;;;;17.65;7.85;;;;;;;9.28;87.45;100307.06;5085233;28;20028;-68
2024/03/12 04:09:45;;;;;;;19.40;8.75;;;;;;;9.22;87.54;100311.97;5085882;28;20114;-68
2024/03/12 04:12:11;;;;;;;18.67;7.80;;;;;;;9.17;87.38;100309.56;5085564;28;20131;-68
2024/03/12 04:14:37;;;;;;;17.80;7.45;;;;;;;9.13;87.68;100313.31;5086041;28;20119;-68
2024/03/12 04:17:04;;;;;;;15.02;7.32;;;;;;;9.09;87.48;100316.69;5085420;28;20055;-68
2024/03/12 04:19:32;;;;;;;17.88;7.28;;;;;;;9.03;87.29;100323.47;5085784;28;20040;-68
2024/03/12 04:21:59;;;;;;;23.55;9.35;;;;;;;9.01;87.57;100320.38;5086890;28;20024;-68
2024/03/12 04:24:25;;;;;;;16.80;7.05;;;;;;;9.01;87.47;100327.63;5066898;28;20035;-68
2024/03/12 04:26:52;;;;;;;18.40;7.88;;;;;;;8.94;87.20;100320.19;5085094;28;20394;-68
2024/03/12 04:29:18;;;;;;;15.40;6.68;;;;;;;8.92;87.08;100325.13;5087209;28;20033;-68
2024/03/12 04:31:43;;;;;;;15.40;6.65;;;;;;;8.87;86.64;100330.78;5094532;28;20024;-68
2024/03/12 04:34:09;;;;;;;17.90;6.88;;;;;;;8.84;86.93;100331.50;5086176;28;20044;-68
2024/03/12 04:36:35;;;;;;;19.02;8.32;;;;;;;8.83;87.01;100331.84;5085887;28;20402;-68
2024/03/12 04:39:30;;;;;;;17.27;7.13;;;;;;;8.74;87.18;100340.09;5083275;28;20040;-68
2024/03/12 04:41:47;;;;;;;18.25;7.10;;;;;;;8.73;87.26;100327.78;5086440;28;20046;-68
2024/03/12 04:44:13;;;;;;;16.58;8.00;;;;;;;8.76;86.84;100327.09;5084651;28;20028;-68
2024/03/12 04:46:45;;;;;;;15.60;7.07;;;;;;;8.71;86.79;100332.72;5067092;28;20177;-68
2024/03/12 04:49:11;;;;;;;17.17;7.18;;;;;;;8.63;87.11;100338.31;5085906;28;20501;-68
2024/03/12 04:51:37;;;;;;;18.55;7.00;;;;;;;8.64;87.50;100346.00;5084958;28;20023;-68
2024/03/12 04:54:03;;;;;;;18.85;7.72;;;;;;;8.67;87.73;100345.28;5093622;28;20046;-68
2024/03/12 04:56:29;;;;;;;15.90;6.65;;;;;;;8.71;87.52;100340.78;5091905;28;20516;-68
2024/03/12 04:58:54;;;;;;;16.52;6.75;;;;;;;8.76;87.43;100345.91;5086907;28;20035;-68
2024/03/12 05:01:19;;;;;;;18.08;6.35;;;;;;;8.79;87.72;100347.09;5088013;28;20072;-68
2024/03/12 05:03:45;;;;;;;16.20;6.78;;;;;;;8.81;87.87;100351.00;5093086;28;20482;-68
2024/03/12 05:06:11;;;;;;;20.92;7.25;;;;;;;8.86;88.06;100350.72;5088802;28;20061;-68
2024/03/12 05:08:37;;;;;;;19.55;8.35;;;;;;;8.88;88.30;100342.31;5069529;28;20048;-68
2024/03/12 05:11:03;;;;;;;14.18;6.47;;;;;;;8.92;88.22;100357.38;5090415;28;20047;-68
2024/03/12 05:13:29;;;;;;;20.13;7.28;;;;;;;8.85;88.22;100357.22;5091792;28;20039;-68
2024/03/12 05:15:54;;;;;;;16.48;6.78;;;;;;;8.78;88.55;100356.28;5092888;28;20027;-68
2024/03/12 05:18:20;;;;;;;17.27;7.60;;;;;;;8.65;89.08;100352.91;5089979;28;20089;-68
2024/03/12 05:20:46;;;;;;;17.65;6.43;;;;;;;8.62;90.05;100359.00;5082230;28;20490;-68
2024/03/12 05:23:12;;;;;;;14.80;7.03;;;;;;;8.57;89.79;100364.63;5081877;28;20035;-69
2024/03/12 05:25:41;;;;;;;18.00;7.32;;;;;;;8.42;90.45;100364.66;5083310;28;20394;-68
2024/03/12 05:28:09;;;;;;;15.48;7.60;;;;;;;8.56;90.14;100367.66;5082706;28;20036;-68
2024/03/12 05:30:40;;;;;;;17.65;8.27;;;;;;;8.66;89.81;100378.66;5083615;28;20119;-68
2024/03/12 05:33:10;;;;;;;;;;;;;;;8.54;89.98;100376.06;5084093;28;20035;-68
2024/03/12 05:35:38;;;;;;;15.30;5.65;;;;;;;8.56;90.40;100387.22;5117601;27;19919;-68
2024/03/12 05:48:52;;;;;;;13.23;6.40;;;;;;;8.87;89.80;100394.44;5081478;28;20039;-68
2024/03/12 05:51:18;;;;;;;14.77;6.70;;;;;;;8.86;89.67;100396.38;5087728;28;20036;-68
2024/03/12 05:53:44;;;;;;;14.25;6.68;;;;;;;8.83;89.45;100402.44;5083569;28;20398;-68
2024/03/12 05:56:10;;;;;;;19.60;7.45;;;;;;;8.84;89.79;100393.25;5085268;28;20038;-68
2024/03/12 05:58:39;;;;;;;15.02;6.35;;;;;;;8.85;90.06;100394.81;5084756;28;20134;-68
2024/03/12 06:01:05;;;;;;;14.18;6.88;;;;;;;8.87;89.68;100405.19;5087248;28;20043;-68
2024/03/12 06:03:35;;;;;;;13.48;5.68;;;;;;;8.94;89.70;100408.81;5091810;28;20054;-68
2024/03/12 06:06:04;;;;;;;17.80;7.03;;;;;;;8.99;89.74;100410.47;5090410;28;20036;-68
2024/03/12 06:08:32;;;;;;;15.63;6.43;;;;;;;8.95;89.96;100415.75;5126179;27;20120;-68
2024/03/12 06:10:57;;;;;;;19.70;7.65;;;;;;;9.01;89.68;100414.38;5105177;27;20032;-68
2024/03/12 06:13:24;;;;;;;15.73;7.38;;;;;;;9.01;89.69;100413.56;5088070;28;20038;-68
2024/03/12 06:15:50;;;;;;;14.10;6.55;;;;;;;8.95;89.74;100406.91;5087973;28;20027;-68
2024/03/12 06:18:18;;;;;;;15.05;6.63;;;;;;;9.01;89.88;100416.25;5086127;28;20035;-68
2024/03/12 06:20:45;;;;;;;18.75;7.20;;;;;;;9.04;89.63;100424.38;5126086;27;20080;-68
2024/03/12 06:23:15;;;;;;;14.50;7.07;;;;;;;9.10;89.63;100427.59;5093918;28;20015;-68
2024/03/12 06:25:41;;;;;;;10.38;5.85;;;;;;;9.14;89.64;100427.69;5106896;28;20043;-68
2024/03/12 06:28:06;;;;;;;16.25;7.25;;;;;;;9.18;89.36;100439.25;5098014;28;20036;-68
2024/03/12 06:30:34;;;;;;;13.00;6.55;;;;;;;9.28;89.00;100431.44;5093211;28;20035;-68
2024/03/12 06:33:01;;;;;;;16.17;6.72;;;;;;;9.23;89.40;100433.63;5094326;28;20035;-68
2024/03/12 06:35:27;;;;;;;16.52;7.60;;;;;;;9.19;89.81;100430.09;5085865;28;20052;-68
2024/03/12 06:37:54;;;;;;;13.65;7.10;;;;;;;9.19;89.75;100430.88;5093212;28;20143;-68
2024/03/12 06:40:20;;;;;;;21.63;7.43;;;;;;;9.14;90.17;100433.06;5095863;28;20047;-68
2024/03/12 06:42:46;;;;;;;16.92;7.20;;;;;;;9.20;90.26;100437.00;5088132;28;20028;-68
2024/03/12 06:45:12;;;;;;;15.13;6.57;;;;;;;9.26;90.16;100444.44;5092102;28;20077;-68
2024/03/12 06:47:40;;;;;;;13.10;6.88;;;;;;;9.28;89.97;100449.47;5088571;28;20035;-68
2024/03/12 06:50:09;;;;;;;11.75;6.05;;;;;;;9.36;89.67;100443.13;5090764;28;20024;-68
2024/03/12 06:52:35;;;;;;;13.65;6.40;;;;;;;9.44;88.65;100450.22;5086931;28;20463;-68
2024/03/12 06:55:05;;;;;;;14.93;7.07;;;;;;;9.43;88.98;100456.69;5125142;27;20479;-68
2024/03/12 06:57:34;;;;;;;17.85;6.65;;;;;;;9.49;88.44;100461.47;5093163;28;20127;-68
2024/03/12 07:00:09;;;;;;;19.55;7.65;;;;;;;9.53;88.27;100461.53;5094369;28;20059;-68
2024/03/12 07:02:38;;;;;;;16.10;7.80;;;;;;;9.54;88.29;100461.19;5092583;28;20426;-68
2024/03/12 07:05:09;;;;;;;14.02;6.55;;;;;;;9.52;88.79;100454.63;5099736;28;20064;-68
2024/03/12 07:07:35;;;;;;;16.30;7.72;;;;;;;9.49;88.92;100460.69;5092980;28;20503;-68
2024/03/12 07:10:03;;;;;;;14.38;6.53;;;;;;;9.40;90.10;100468.16;5091666;28;20020;-68
2024/03/12 07:12:32;;;;;;;16.02;6.70;;;;;;;9.41;90.58;100467.03;5127274;27;20039;-68
2024/03/12 07:14:58;;;;;;;15.23;6.90;;;;;;;9.45;90.79;100467.88;5093335;28;20495;-68
2024/03/12 07:17:24;;;;;;;14.43;7.57;;;;;;;9.48;90.83;100470.66;5095446;28;20058;-68
2024/03/12 07:19:50;;;;;;;16.80;6.97;;;;;;;9.56;90.46;100466.22;5091040;28;20641;-68
2024/03/12 07:22:18;;;;;;;18.85;7.00;;;;;;;9.57;90.41;100473.13;5087918;28;20031;-68
2024/03/12 07:24:43;;;;;;;16.73;6.63;;;;;;;9.59;90.76;100471.66;5090511;28;20032;-68
2024/03/12 07:27:10;;;;;;;19.38;7.75;;;;;;;9.70;90.27;100472.66;5098129;28;20392;-68
2024/03/12 07:29:36;;;;;;;16.63;7.80;;;;;;;9.70;90.47;100471.88;5101819;27;20032;-68
2024/03/12 07:32:03;;;;;;;16.33;7.45;;;;;;;9.68;90.94;100480.28;5095304;28;20126;-68
2024/03/12 07:34:32;;;;;;;13.60;6.57;;;;;;;9.69;91.52;100481.88;5091159;28;20043;-68
2024/03/12 07:36:59;;;;;;;19.50;6.95;;;;;;;9.72;91.35;100480.38;5094499;28;20024;-67
2024/03/12 07:39:25;;;;;;;12.25;6.45;;;;;;;9.73;91.54;100479.25;5097422;28;20087;-68
2024/03/12 07:41:59;;;;;;;12.40;6.60;;;;;;;9.78;91.30;100479.75;5072873;28;20039;-68
2024/03/12 07:44:25;;;;;;;12.10;5.80;;;;;;;9.79;91.20;100477.84;5076364;28;20024;-68
2024/03/12 07:46:52;;;;;;;14.82;6.68;;;;;;;9.83;91.42;100484.06;5075831;28;20044;-68
2024/03/12 07:49:21;;;;;;;19.45;6.95;;;;;;;9.96;91.29;100480.09;5095539;28;20040;-68
2024/03/12 07:51:50;;;;;;;12.32;5.95;;;;;;;10.02;91.09;100478.69;5089687;28;20120;-68
2024/03/12 07:54:19;;;;;;;10.82;5.88;;;;;;;10.06;90.37;100484.91;5088465;28;20030;-68
2024/03/12 07:56:48;;;;;;;14.63;5.47;;;;;;;10.02;90.88;100479.47;5067797;28;20031;-68
2024/03/12 07:59:21;;;;;;;9.57;4.68;;;;;;;10.03;90.55;100480.22;5070369;28;20414;-68
2024/03/12 08:01:52;;;;;;;11.57;4.97;;;;;;;10.19;90.05;100469.41;5088227;28;20024;-68
2024/03/12 08:04:19;;;;;;;9.45;4.93;;;;;;;10.12;90.21;100475.47;5120122;27;20119;-68
2024/03/12 08:06:44;;;;;;;13.13;6.20;;;;;;;10.07;90.99;100483.00;5088526;28;20040;-68
2024/03/12 08:09:10;;;;;;;7.50;4.28;;;;;;;10.05;91.21;100477.97;5074707;28;20036;-68
2024/03/12 08:11:36;;;;;;;13.07;5.32;;;;;;;10.12;90.90;100491.59;5088756;28;20028;-68
2024/03/12 08:14:03;;;;;;;14.85;5.13;;;;;;;10.13;90.93;100484.28;5078019;28;20456;-68
2024/03/12 08:16:29;;;;;;;9.88;5.57;;;;;;;10.15;91.07;100506.25;5091714;28;20425;-68
2024/03/12 08:18:57;;;;;;;12.95;5.88;;;;;;;10.33;90.48;100505.47;5091557;28;20062;-68
2024/03/12 08:21:23;;;;;;;11.93;5.35;;;;;;;10.33;90.30;100510.84;5090307;28;20043;-68
2024/03/12 08:23:48;;;;;;;15.10;6.03;;;;;;;10.35;90.38;100505.09;5094174;28;20032;-68
2024/03/12 08:26:14;;;;;;;13.93;5.70;;;;;;;10.32;90.07;100503.88;5071979;28;20036;-68
2024/03/12 08:28:40;;;;;;;12.82;4.65;;;;;;;10.24;90.22;100518.34;5084713;28;20031;-68
2024/03/12 08:31:06;;;;;;;10.65;4.70;;;;;;;10.42;90.57;100514.09;5087521;28;20043;-68
2024/03/12 08:33:31;;;;;;;11.60;6.00;;;;;;;10.44;89.39;100511.81;5092372;28;20036;-68
2024/03/12 08:35:57;;;;;;;13.18;5.88;;;;;;;10.38;90.33;100513.22;5097618;28;20059;-68
2024/03/12 08:38:23;;;;;;;13.05;4.95;;;;;;;10.49;90.00;100524.97;5074360;28;20066;-68
2024/03/12 08:40:49;;;;;;;9.38;5.13;;;;;;;10.43;90.06;100521.00;5089933;28;20037;-68
2024/03/12 08:43:15;;;;;;;12.20;5.18;;;;;;;10.37;90.57;100525.16;5095382;28;20761;-68
2024/03/12 08:45:40;;;;;;;12.70;5.05;;;;;;;10.48;90.79;100528.03;5083974;28;20036;-68
2024/03/12 08:48:07;;;;;;;14.07;5.63;;;;;;;10.51;89.98;100522.69;5089078;28;20126;-68
2024/03/12 08:50:32;;;;;;;11.48;5.47;;;;;;;10.45;90.36;100531.44;5089853;28;20080;-68
2024/03/12 08:52:58;;;;;;;10.98;5.40;;;;;;;10.48;90.43;100533.41;5089150;28;20039;-68
2024/03/12 08:55:24;;;;;;;10.10;4.88;;;;;;;10.55;90.22;100544.31;5088038;28;20107;-68
2024/03/12 08:57:51;;;;;;;13.68;5.75;;;;;;;10.62;90.17;100534.47;5088769;28;20640;-68
2024/03/12 09:00:18;;;;;;;9.98;5.05;;;;;;;10.62;89.52;100534.47;5086272;28;20527;-68
2024/03/12 09:02:44;;;;;;;13.13;5.40;;;;;;;10.60;90.48;100535.94;5093366;28;20059;-68
2024/03/12 09:05:09;;;;;;;11.38;4.53;;;;;;;10.69;89.22;100537.28;5071674;28;20052;-68
2024/03/12 09:07:38;;;;;;;10.43;4.18;;;;;;;10.73;90.08;100540.81;5084965;28;20115;-68
2024/03/12 09:10:11;;;;;;;11.38;4.57;;;;;;;10.87;88.04;100545.66;5087610;28;20066;-68
2024/03/12 09:12:37;;;;;;;9.30;4.38;;;;;;;10.73;88.80;100542.72;5088689;28;20032;-68
2024/03/12 09:15:03;;;;;;;6.28;3.53;;;;;;;10.73;89.55;100550.78;5099496;27;20118;-68
2024/03/12 09:17:30;;;;;;;16.50;4.85;;;;;;;10.84;88.77;100549.06;5091586;28;20039;-66
2024/03/12 09:19:57;;;;;;;7.60;3.80;;;;;;;11.01;87.93;100551.31;5088787;28;20032;-66
2024/03/12 09:22:22;;;;;;;9.82;4.65;;;;;;;10.93;87.85;100546.13;5096477;28;20410;-67
2024/03/12 09:24:49;;;;;;;12.05;4.90;;;;;;;10.99;87.61;100552.78;5085476;28;20026;-67
2024/03/12 09:27:15;;;;;;;9.40;3.90;;;;;;;10.96;87.95;100554.28;5082596;28;20047;-67
2024/03/12 09:29:41;;;;;;;8.27;3.72;;;;;;;10.94;87.91;100553.09;5086307;28;20032;-67
2024/03/12 09:32:06;;;;;;;12.25;4.05;;;;;;;10.97;89.15;100553.16;5086966;28;20032;-67
2024/03/12 09:34:35;;;;;;;7.75;4.28;;;;;;;11.14;87.75;100560.75;5085987;28;20032;-67
2024/03/12 09:37:01;;;;;;;6.90;3.38;;;;;;;11.22;88.12;100562.44;5103561;27;20107;-67
2024/03/12 09:39:27;;;;;;;10.40;4.03;;;;;;;11.23;87.30;100565.88;5083287;28;20114;-67
2024/03/12 09:41:54;;;;;;;6.13;3.85;;;;;;;11.22;87.94;100565.13;5087727;28;20047;-67
2024/03/12 09:44:21;;;;;;;7.45;3.78;;;;;;;11.25;88.16;100567.09;5088184;28;20044;-67
2024/03/12 09:46:47;;;;;;;10.68;4.32;;;;;;;11.38;86.79;100567.69;5087420;28;20028;-66
2024/03/12 09:49:17;;;;;;;6.07;3.65;;;;;;;11.38;87.10;100562.28;5085382;28;20040;-67
2024/03/12 09:51:44;;;;;;;9.20;4.75;;;;;;;11.44;86.66;100571.63;5087827;28;20028;-67
2024/03/12 09:54:11;;;;;;;7.40;3.97;;;;;;;11.42;87.54;100571.97;5086294;28;20033;-67
2024/03/12 09:56:40;;;;;;;9.52;3.60;;;;;;;11.46;87.16;100567.41;5086799;28;20036;-67
2024/03/12 09:59:07;;;;;;;10.80;4.35;;;;;;;11.35;86.76;100568.38;5075300;28;20502;-66
2024/03/12 10:01:33;;;;;;;7.45;3.75;;;;;;;11.39;86.85;100571.91;5101139;28;20029;-66
2024/03/12 10:03:59;;;;;;;11.30;4.30;;;;;;;11.49;86.36;100571.31;5088238;28;20393;-66
2024/03/12 10:06:25;;;;;;;9.85;4.13;;;;;;;11.58;85.76;100574.53;5085244;28;20043;-67
2024/03/12 10:08:56;;;;;;;10.07;4.35;;;;;;;11.59;85.83;100581.47;5092200;28;20039;-68
2024/03/12 10:11:23;;;;;;;10.27;4.72;;;;;;;11.61;86.38;100584.59;5081420;28;20448;-67
2024/03/12 10:13:56;;;;;;;10.88;4.38;;;;;;;11.67;85.76;100577.78;5069303;28;20036;-67
2024/03/12 10:16:24;;;;;;;10.38;4.43;;;;;;;11.65;85.39;100585.44;5101284;28;20043;-67
2024/03/12 10:19:06;;;;;;;11.55;4.80;;;;;;;11.71;85.23;100570.53;5090636;28;20028;-67
2024/03/12 10:21:31;;;;;;;;;;;;;;;11.71;84.78;100578.63;5092283;28;20409;-67
2024/03/12 10:24:14;;;;;;;10.95;3.35;;;;;;;11.70;85.76;100582.44;5086287;28;19920;-67
2024/03/12 10:26:44;;;;;;;8.77;4.25;;;;;;;11.77;85.24;100577.91;5100158;28;20020;-67
2024/03/12 10:29:16;;;;;;;9.55;4.45;;;;;;;11.78;85.19;100579.50;5089290;28;20032;-67
2024/03/12 10:31:44;;;;;;;7.80;4.20;;;;;;;11.77;85.40;100577.91;5091614;28;20495;-67
2024/03/12 10:34:20;;;;;;;10.02;4.43;;;;;;;11.80;84.79;100587.22;5088564;28;20036;-67
2024/03/12 10:36:49;;;;;;;10.10;5.35;;;;;;;11.81;84.93;100580.66;5086853;28;20406;-67
2024/03/12 10:39:25;;;;;;;10.30;4.00;;;;;;;11.92;84.97;100584.31;5087625;28;20036;-67
2024/03/12 10:42:00;;;;;;;9.35;4.13;;;;;;;11.94;85.14;100582.03;5090114;28;20027;-67
2024/03/12 10:44:27;;;;;;;10.15;4.43;;;;;;;11.95;85.11;100580.09;5091594;28;20101;-67
2024/03/12 10:46:53;;;;;;;10.70;4.22;;;;;;;12.02;84.50;100591.75;5104064;27;20038;-67
2024/03/12 10:49:22;;;;;;;10.75;3.88;;;;;;;12.12;83.12;100582.22;5092503;28;20028;-67
2024/03/12 10:51:48;;;;;;;10.40;4.35;;;;;;;12.05;84.09;100591.03;5111215;27;20123;-67
2024/03/12 10:54:16;;;;;;;7.95;3.67;;;;;;;12.02;83.88;100586.34;5088859;28;20115;-67
2024/03/12 10:56:45;;;;;;;9.48;4.55;;;;;;;12.10;84.22;100590.69;5087917;28;20036;-67
2024/03/12 10:59:12;;;;;;;8.13;3.47;;;;;;;12.20;84.09;100590.06;5091449;28;20097;-67
2024/03/12 11:01:41;;;;;;;11.13;4.43;;;;;;;12.28;83.89;100591.72;5091752;28;20043;-67
2024/03/12 11:04:12;;;;;;;9.50;4.25;;;;;;;12.33;84.35;100587.91;5086645;28;20036;-67
2024/03/12 11:06:39;;;;;;;7.10;3.65;;;;;;;12.48;83.17;100595.81;5081450;28;20036;-67
2024/03/12 11:09:06;;;;;;;9.07;3.85;;;;;;;12.51;82.49;100594.28;5092469;28;20503;-67
2024/03/12 11:11:36;;;;;;;10.55;4.88;;;;;;;12.53;82.64;100592.78;5082938;28;20120;-67
2024/03/12 11:14:03;;;;;;;9.27;4.25;;;;;;;12.68;81.57;100591.78;5085320;28;20035;-67
2024/03/12 11:16:34;;;;;;;9.82;4.43;;;;;;;12.72;82.17;100588.34;5088660;28;20051;-67
2024/03/12 11:19:20;;;;;;;11.63;4.55;;;;;;;12.77;82.24;100598.81;5089129;28;20051;-67
2024/03/12 11:21:49;;;;;;;11.07;5.05;;;;;;;12.90;82.09;100594.69;5094904;28;20028;-67
2024/03/12 11:24:27;;;;;;;13.10;5.35;;;;;;;13.13;81.24;100592.63;5088207;28;20024;-67
2024/03/12 11:26:53;;;;;;;9.88;4.50;;;;;;;13.24;80.58;100593.53;5091716;28;20039;-67
2024/03/12 11:29:18;;;;;;;13.00;5.95;;;;;;;13.33;80.20;100600.16;5092889;28;20453;-67
2024/03/12 11:31:44;;;;;;;12.32;4.68;;;;;;;13.52;79.94;100593.72;5094099;28;20028;-67
2024/03/12 11:34:11;;;;;;;14.65;5.90;;;;;;;13.60;79.34;100600.75;5087611;28;20031;-67